sensor_id;sensor_type;location;lat;lon;timestamp;P1;durP1;ratioP1;P2;durP2;ratioP2
12328;SDS011;6230;52.390;10.256;2022-08-21T00:01:21;3.30;;;1.83;;
12328;SDS011;6230;52.390;10.256;2022-08-21T00:03:49;8.18;;;2.22;;
12328;SDS011;6230;52.390;10.256;2022-08-21T00:06:15;5.20;;;1.83;;
12328;SDS011;6230;52.390;10.256;2022-08-21T00:08:41;5.10;;;1.92;;
12328;SDS011;6230;52.390;10.256;2022-08-21T00:11:07;3.53;;;1.70;;
12328;SDS011;6230;52.390;10.256;2022-08-21T00:13:33;6.60;;;1.90;;
12328;SDS011;6230;52.390;10.256;2022-08-21T00:16:00;4.30;;;1.80;;
12328;SDS011;6230;52.390;10.256;2022-08-21T00:18:26;3.03;;;1.60;;
12328;SDS011;6230;52.390;10.256;2022-08-21T00:20:52;3.67;;;1.98;;
12328;SDS011;6230;52.390;10.256;2022-08-21T00:23:18;4.32;;;1.80;;
12328;SDS011;6230;52.390;10.256;2022-08-21T00:25:43;5.85;;;2.20;;
12328;SDS011;6230;52.390;10.256;2022-08-21T00:28:10;5.10;;;2.28;;
12328;SDS011;6230;52.390;10.256;2022-08-21T00:30:37;3.50;;;1.92;;
12328;SDS011;6230;52.390;10.256;2022-08-21T00:33:03;5.30;;;2.38;;
12328;SDS011;6230;52.390;10.256;2022-08-21T00:35:31;5.25;;;2.00;;
12328;SDS011;6230;52.390;10.256;2022-08-21T00:37:59;4.25;;;2.20;;
12328;SDS011;6230;52.390;10.256;2022-08-21T00:40:30;5.65;;;2.10;;
12328;SDS011;6230;52.390;10.256;2022-08-21T00:43:11;5.28;;;2.05;;
12328;SDS011;6230;52.390;10.256;2022-08-21T00:45:40;3.15;;;1.70;;
12328;SDS011;6230;52.390;10.256;2022-08-21T00:48:06;4.63;;;2.08;;
12328;SDS011;6230;52.390;10.256;2022-08-21T00:50:33;6.45;;;2.25;;
12328;SDS011;6230;52.390;10.256;2022-08-21T00:53:02;7.45;;;2.00;;
12328;SDS011;6230;52.390;10.256;2022-08-21T00:55:31;6.00;;;1.98;;
12328;SDS011;6230;52.390;10.256;2022-08-21T00:57:59;6.03;;;2.20;;
12328;SDS011;6230;52.390;10.256;2022-08-21T01:00:28;4.85;;;1.95;;
12328;SDS011;6230;52.390;10.256;2022-08-21T01:02:56;5.00;;;2.17;;
12328;SDS011;6230;52.390;10.256;2022-08-21T01:05:23;5.50;;;1.90;;
12328;SDS011;6230;52.390;10.256;2022-08-21T01:07:49;3.97;;;2.10;;
12328;SDS011;6230;52.390;10.256;2022-08-21T01:10:15;2.40;;;1.70;;
12328;SDS011;6230;52.390;10.256;2022-08-21T01:12:42;6.40;;;2.30;;
12328;SDS011;6230;52.390;10.256;2022-08-21T01:15:08;6.82;;;2.03;;
12328;SDS011;6230;52.390;10.256;2022-08-21T01:17:35;5.82;;;2.28;;
12328;SDS011;6230;52.390;10.256;2022-08-21T01:20:04;4.97;;;2.40;;
12328;SDS011;6230;52.390;10.256;2022-08-21T01:22:32;4.70;;;2.22;;
12328;SDS011;6230;52.390;10.256;2022-08-21T01:24:58;5.25;;;2.20;;
12328;SDS011;6230;52.390;10.256;2022-08-21T01:27:23;4.85;;;1.90;;
12328;SDS011;6230;52.390;10.256;2022-08-21T01:29:54;3.22;;;1.98;;
12328;SDS011;6230;52.390;10.256;2022-08-21T01:32:24;5.72;;;1.95;;
12328;SDS011;6230;52.390;10.256;2022-08-21T01:34:50;5.57;;;2.22;;
12328;SDS011;6230;52.390;10.256;2022-08-21T01:37:17;4.78;;;2.10;;
12328;SDS011;6230;52.390;10.256;2022-08-21T01:39:44;2.55;;;1.80;;
12328;SDS011;6230;52.390;10.256;2022-08-21T01:42:10;4.40;;;2.10;;
12328;SDS011;6230;52.390;10.256;2022-08-21T01:44:36;6.53;;;2.25;;
12328;SDS011;6230;52.390;10.256;2022-08-21T01:47:03;4.63;;;2.15;;
12328;SDS011;6230;52.390;10.256;2022-08-21T01:49:31;6.28;;;1.77;;
12328;SDS011;6230;52.390;10.256;2022-08-21T01:51:56;3.65;;;1.92;;
12328;SDS011;6230;52.390;10.256;2022-08-21T01:54:22;6.82;;;1.95;;
12328;SDS011;6230;52.390;10.256;2022-08-21T01:56:49;3.60;;;1.90;;
12328;SDS011;6230;52.390;10.256;2022-08-21T01:59:16;4.32;;;1.98;;
12328;SDS011;6230;52.390;10.256;2022-08-21T02:01:42;3.72;;;2.00;;
12328;SDS011;6230;52.390;10.256;2022-08-21T02:04:08;4.03;;;1.65;;
12328;SDS011;6230;52.390;10.256;2022-08-21T02:06:34;6.03;;;2.47;;
12328;SDS011;6230;52.390;10.256;2022-08-21T02:09:02;4.45;;;1.98;;
12328;SDS011;6230;52.390;10.256;2022-08-21T02:11:30;5.03;;;1.90;;
12328;SDS011;6230;52.390;10.256;2022-08-21T02:13:56;6.57;;;2.28;;
12328;SDS011;6230;52.390;10.256;2022-08-21T02:16:22;4.05;;;2.10;;
12328;SDS011;6230;52.390;10.256;2022-08-21T02:18:49;5.75;;;2.10;;
12328;SDS011;6230;52.390;10.256;2022-08-21T02:21:15;5.97;;;1.80;;
12328;SDS011;6230;52.390;10.256;2022-08-21T02:23:41;3.42;;;2.10;;
12328;SDS011;6230;52.390;10.256;2022-08-21T02:26:07;4.90;;;1.88;;
12328;SDS011;6230;52.390;10.256;2022-08-21T02:28:34;3.95;;;2.00;;
12328;SDS011;6230;52.390;10.256;2022-08-21T02:31:00;3.28;;;1.92;;
12328;SDS011;6230;52.390;10.256;2022-08-21T02:33:27;5.03;;;1.83;;
12328;SDS011;6230;52.390;10.256;2022-08-21T02:35:53;2.83;;;1.98;;
12328;SDS011;6230;52.390;10.256;2022-08-21T02:38:21;5.25;;;1.83;;
12328;SDS011;6230;52.390;10.256;2022-08-21T02:40:50;3.40;;;1.63;;
12328;SDS011;6230;52.390;10.256;2022-08-21T02:43:17;4.50;;;1.90;;
12328;SDS011;6230;52.390;10.256;2022-08-21T02:45:44;4.47;;;1.85;;
12328;SDS011;6230;52.390;10.256;2022-08-21T02:48:12;7.20;;;2.00;;
12328;SDS011;6230;52.390;10.256;2022-08-21T02:50:41;5.32;;;2.00;;
12328;SDS011;6230;52.390;10.256;2022-08-21T02:53:10;6.03;;;2.03;;
12328;SDS011;6230;52.390;10.256;2022-08-21T02:55:40;4.88;;;1.85;;
12328;SDS011;6230;52.390;10.256;2022-08-21T02:58:06;5.15;;;1.92;;
12328;SDS011;6230;52.390;10.256;2022-08-21T03:00:32;4.38;;;1.98;;
12328;SDS011;6230;52.390;10.256;2022-08-21T03:03:00;6.30;;;2.20;;
12328;SDS011;6230;52.390;10.256;2022-08-21T03:05:27;5.03;;;2.05;;
12328;SDS011;6230;52.390;10.256;2022-08-21T03:07:53;3.80;;;2.08;;
12328;SDS011;6230;52.390;10.256;2022-08-21T03:10:21;4.50;;;2.10;;
12328;SDS011;6230;52.390;10.256;2022-08-21T03:12:47;3.92;;;2.40;;
12328;SDS011;6230;52.390;10.256;2022-08-21T03:15:14;5.97;;;2.40;;
12328;SDS011;6230;52.390;10.256;2022-08-21T03:17:42;6.82;;;2.55;;
12328;SDS011;6230;52.390;10.256;2022-08-21T03:20:08;3.85;;;2.35;;
12328;SDS011;6230;52.390;10.256;2022-08-21T03:22:35;6.30;;;2.30;;
12328;SDS011;6230;52.390;10.256;2022-08-21T03:25:00;6.50;;;2.58;;
12328;SDS011;6230;52.390;10.256;2022-08-21T03:27:27;5.15;;;2.15;;
12328;SDS011;6230;52.390;10.256;2022-08-21T03:29:53;4.13;;;2.30;;
12328;SDS011;6230;52.390;10.256;2022-08-21T03:32:19;4.43;;;2.42;;
12328;SDS011;6230;52.390;10.256;2022-08-21T03:34:45;3.38;;;2.20;;
12328;SDS011;6230;52.390;10.256;2022-08-21T03:37:12;4.68;;;2.30;;
12328;SDS011;6230;52.390;10.256;2022-08-21T03:39:38;7.22;;;2.30;;
12328;SDS011;6230;52.390;10.256;2022-08-21T03:42:04;4.57;;;2.70;;
12328;SDS011;6230;52.390;10.256;2022-08-21T03:44:31;8.95;;;2.40;;
12328;SDS011;6230;52.390;10.256;2022-08-21T03:46:57;4.85;;;2.13;;
12328;SDS011;6230;52.390;10.256;2022-08-21T03:49:23;4.80;;;2.17;;
12328;SDS011;6230;52.390;10.256;2022-08-21T03:51:49;5.00;;;2.60;;
12328;SDS011;6230;52.390;10.256;2022-08-21T03:54:15;5.05;;;2.60;;
12328;SDS011;6230;52.390;10.256;2022-08-21T03:56:41;3.47;;;2.25;;
12328;SDS011;6230;52.390;10.256;2022-08-21T03:59:06;5.43;;;2.28;;
12328;SDS011;6230;52.390;10.256;2022-08-21T04:01:32;6.65;;;2.40;;
12328;SDS011;6230;52.390;10.256;2022-08-21T04:03:58;5.90;;;2.25;;
12328;SDS011;6230;52.390;10.256;2022-08-21T04:06:24;4.50;;;2.58;;
12328;SDS011;6230;52.390;10.256;2022-08-21T04:08:51;6.32;;;2.60;;
12328;SDS011;6230;52.390;10.256;2022-08-21T04:11:17;5.18;;;2.85;;
12328;SDS011;6230;52.390;10.256;2022-08-21T04:13:43;3.38;;;2.33;;
12328;SDS011;6230;52.390;10.256;2022-08-21T04:16:09;5.65;;;2.80;;
12328;SDS011;6230;52.390;10.256;2022-08-21T04:18:34;3.72;;;2.47;;
12328;SDS011;6230;52.390;10.256;2022-08-21T04:21:00;4.88;;;2.72;;
12328;SDS011;6230;52.390;10.256;2022-08-21T04:23:28;4.00;;;2.40;;
12328;SDS011;6230;52.390;10.256;2022-08-21T04:25:53;4.97;;;2.92;;
12328;SDS011;6230;52.390;10.256;2022-08-21T04:28:20;4.43;;;2.38;;
12328;SDS011;6230;52.390;10.256;2022-08-21T04:30:48;4.32;;;2.40;;
12328;SDS011;6230;52.390;10.256;2022-08-21T04:33:15;4.90;;;2.45;;
12328;SDS011;6230;52.390;10.256;2022-08-21T04:35:41;3.97;;;2.25;;
12328;SDS011;6230;52.390;10.256;2022-08-21T04:38:07;4.22;;;2.15;;
12328;SDS011;6230;52.390;10.256;2022-08-21T04:40:33;4.25;;;2.10;;
12328;SDS011;6230;52.390;10.256;2022-08-21T04:43:01;4.97;;;2.47;;
12328;SDS011;6230;52.390;10.256;2022-08-21T04:45:35;4.85;;;2.28;;
12328;SDS011;6230;52.390;10.256;2022-08-21T04:48:07;4.32;;;2.10;;
12328;SDS011;6230;52.390;10.256;2022-08-21T04:53:31;3.33;;;1.80;;
12328;SDS011;6230;52.390;10.256;2022-08-21T04:56:02;7.75;;;2.20;;
12328;SDS011;6230;52.390;10.256;2022-08-21T04:58:32;5.38;;;2.63;;
12328;SDS011;6230;52.390;10.256;2022-08-21T05:01:00;4.82;;;2.53;;
12328;SDS011;6230;52.390;10.256;2022-08-21T05:03:26;5.38;;;2.72;;
12328;SDS011;6230;52.390;10.256;2022-08-21T05:05:52;4.20;;;2.60;;
12328;SDS011;6230;52.390;10.256;2022-08-21T05:08:19;4.60;;;3.00;;
12328;SDS011;6230;52.390;10.256;2022-08-21T05:10:48;3.45;;;2.42;;
12328;SDS011;6230;52.390;10.256;2022-08-21T05:13:13;4.32;;;2.65;;
12328;SDS011;6230;52.390;10.256;2022-08-21T05:15:39;6.85;;;3.20;;
12328;SDS011;6230;52.390;10.256;2022-08-21T05:18:06;6.65;;;2.90;;
12328;SDS011;6230;52.390;10.256;2022-08-21T05:20:32;7.47;;;2.90;;
12328;SDS011;6230;52.390;10.256;2022-08-21T05:22:59;5.60;;;3.20;;
12328;SDS011;6230;52.390;10.256;2022-08-21T05:25:25;6.38;;;2.85;;
12328;SDS011;6230;52.390;10.256;2022-08-21T05:27:52;4.38;;;2.97;;
12328;SDS011;6230;52.390;10.256;2022-08-21T05:30:18;8.45;;;2.75;;
12328;SDS011;6230;52.390;10.256;2022-08-21T05:32:45;7.40;;;3.22;;
12328;SDS011;6230;52.390;10.256;2022-08-21T05:35:12;9.68;;;3.03;;
12328;SDS011;6230;52.390;10.256;2022-08-21T05:37:38;5.88;;;2.88;;
12328;SDS011;6230;52.390;10.256;2022-08-21T05:40:04;8.32;;;2.70;;
12328;SDS011;6230;52.390;10.256;2022-08-21T05:42:31;5.97;;;2.95;;
12328;SDS011;6230;52.390;10.256;2022-08-21T05:44:57;4.57;;;2.83;;
12328;SDS011;6230;52.390;10.256;2022-08-21T05:47:22;3.72;;;2.65;;
12328;SDS011;6230;52.390;10.256;2022-08-21T05:49:48;5.35;;;2.58;;
12328;SDS011;6230;52.390;10.256;2022-08-21T05:52:18;4.20;;;2.70;;
12328;SDS011;6230;52.390;10.256;2022-08-21T05:54:47;4.90;;;2.63;;
12328;SDS011;6230;52.390;10.256;2022-08-21T05:57:13;5.22;;;2.70;;
12328;SDS011;6230;52.390;10.256;2022-08-21T05:59:38;6.10;;;2.70;;
12328;SDS011;6230;52.390;10.256;2022-08-21T06:02:04;6.13;;;3.00;;
12328;SDS011;6230;52.390;10.256;2022-08-21T06:04:34;5.03;;;2.78;;
12328;SDS011;6230;52.390;10.256;2022-08-21T06:07:01;5.63;;;2.55;;
12328;SDS011;6230;52.390;10.256;2022-08-21T06:09:26;5.75;;;2.45;;
12328;SDS011;6230;52.390;10.256;2022-08-21T06:11:52;5.45;;;2.53;;
12328;SDS011;6230;52.390;10.256;2022-08-21T06:14:17;8.38;;;3.00;;
12328;SDS011;6230;52.390;10.256;2022-08-21T06:16:43;6.13;;;3.05;;
12328;SDS011;6230;52.390;10.256;2022-08-21T06:19:09;6.10;;;2.72;;
12328;SDS011;6230;52.390;10.256;2022-08-21T06:21:34;7.07;;;2.63;;
12328;SDS011;6230;52.390;10.256;2022-08-21T06:24:00;4.32;;;2.28;;
12328;SDS011;6230;52.390;10.256;2022-08-21T06:26:25;5.85;;;2.72;;
12328;SDS011;6230;52.390;10.256;2022-08-21T06:28:51;5.70;;;2.90;;
12328;SDS011;6230;52.390;10.256;2022-08-21T06:31:19;7.45;;;2.90;;
12328;SDS011;6230;52.390;10.256;2022-08-21T06:33:46;3.90;;;2.50;;
12328;SDS011;6230;52.390;10.256;2022-08-21T06:36:12;5.35;;;3.00;;
12328;SDS011;6230;52.390;10.256;2022-08-21T06:38:39;7.85;;;3.13;;
12328;SDS011;6230;52.390;10.256;2022-08-21T06:41:05;4.85;;;2.70;;
12328;SDS011;6230;52.390;10.256;2022-08-21T06:43:31;7.10;;;3.05;;
12328;SDS011;6230;52.390;10.256;2022-08-21T06:45:56;6.80;;;3.55;;
12328;SDS011;6230;52.390;10.256;2022-08-21T06:48:22;5.90;;;3.13;;
12328;SDS011;6230;52.390;10.256;2022-08-21T06:50:48;5.40;;;3.03;;
12328;SDS011;6230;52.390;10.256;2022-08-21T06:53:15;9.38;;;3.00;;
12328;SDS011;6230;52.390;10.256;2022-08-21T06:55:42;9.00;;;3.25;;
12328;SDS011;6230;52.390;10.256;2022-08-21T06:58:09;4.10;;;3.10;;
12328;SDS011;6230;52.390;10.256;2022-08-21T07:00:35;5.70;;;3.60;;
12328;SDS011;6230;52.390;10.256;2022-08-21T07:03:04;8.10;;;4.30;;
12328;SDS011;6230;52.390;10.256;2022-08-21T07:05:30;7.28;;;3.97;;
12328;SDS011;6230;52.390;10.256;2022-08-21T07:07:55;4.22;;;3.00;;
12328;SDS011;6230;52.390;10.256;2022-08-21T07:10:22;4.75;;;3.55;;
12328;SDS011;6230;52.390;10.256;2022-08-21T07:12:51;5.47;;;3.33;;
12328;SDS011;6230;52.390;10.256;2022-08-21T07:15:18;6.38;;;3.30;;
12328;SDS011;6230;52.390;10.256;2022-08-21T07:17:44;7.13;;;3.53;;
12328;SDS011;6230;52.390;10.256;2022-08-21T07:20:10;7.97;;;3.10;;
12328;SDS011;6230;52.390;10.256;2022-08-21T07:22:36;7.80;;;3.60;;
12328;SDS011;6230;52.390;10.256;2022-08-21T07:25:04;5.13;;;3.35;;
12328;SDS011;6230;52.390;10.256;2022-08-21T07:27:30;6.35;;;3.28;;
12328;SDS011;6230;52.390;10.256;2022-08-21T07:29:56;4.57;;;3.00;;
12328;SDS011;6230;52.390;10.256;2022-08-21T07:32:22;8.65;;;3.40;;
12328;SDS011;6230;52.390;10.256;2022-08-21T07:34:48;5.88;;;3.00;;
12328;SDS011;6230;52.390;10.256;2022-08-21T07:37:13;6.55;;;3.05;;
12328;SDS011;6230;52.390;10.256;2022-08-21T07:39:39;7.15;;;3.15;;
12328;SDS011;6230;52.390;10.256;2022-08-21T07:42:04;6.82;;;3.10;;
12328;SDS011;6230;52.390;10.256;2022-08-21T07:44:30;9.32;;;3.30;;
12328;SDS011;6230;52.390;10.256;2022-08-21T07:46:55;7.80;;;3.33;;
12328;SDS011;6230;52.390;10.256;2022-08-21T07:49:21;11.30;;;3.10;;
12328;SDS011;6230;52.390;10.256;2022-08-21T07:51:46;5.65;;;2.95;;
12328;SDS011;6230;52.390;10.256;2022-08-21T07:54:12;7.05;;;3.25;;
12328;SDS011;6230;52.390;10.256;2022-08-21T07:56:37;10.50;;;3.17;;
12328;SDS011;6230;52.390;10.256;2022-08-21T07:59:03;5.38;;;3.08;;
12328;SDS011;6230;52.390;10.256;2022-08-21T08:01:29;8.52;;;3.45;;
12328;SDS011;6230;52.390;10.256;2022-08-21T08:03:55;5.88;;;2.92;;
12328;SDS011;6230;52.390;10.256;2022-08-21T08:06:21;6.63;;;2.90;;
12328;SDS011;6230;52.390;10.256;2022-08-21T08:08:48;5.97;;;2.72;;
12328;SDS011;6230;52.390;10.256;2022-08-21T08:11:13;7.18;;;3.20;;
12328;SDS011;6230;52.390;10.256;2022-08-21T08:13:44;5.55;;;2.70;;
12328;SDS011;6230;52.390;10.256;2022-08-21T08:16:12;6.45;;;2.90;;
12328;SDS011;6230;52.390;10.256;2022-08-21T08:18:38;7.50;;;2.85;;
12328;SDS011;6230;52.390;10.256;2022-08-21T08:21:04;5.63;;;3.00;;
12328;SDS011;6230;52.390;10.256;2022-08-21T08:23:30;5.70;;;2.72;;
12328;SDS011;6230;52.390;10.256;2022-08-21T08:25:57;7.30;;;2.97;;
12328;SDS011;6230;52.390;10.256;2022-08-21T08:28:23;8.30;;;3.05;;
12328;SDS011;6230;52.390;10.256;2022-08-21T08:30:49;5.95;;;2.90;;
12328;SDS011;6230;52.390;10.256;2022-08-21T08:33:15;7.47;;;2.80;;
12328;SDS011;6230;52.390;10.256;2022-08-21T08:35:42;9.23;;;2.90;;
12328;SDS011;6230;52.390;10.256;2022-08-21T08:38:10;9.43;;;2.53;;
12328;SDS011;6230;52.390;10.256;2022-08-21T08:40:41;6.68;;;2.50;;
12328;SDS011;6230;52.390;10.256;2022-08-21T08:43:17;4.65;;;1.77;;
12328;SDS011;6230;52.390;10.256;2022-08-21T08:45:45;5.70;;;2.25;;
12328;SDS011;6230;52.390;10.256;2022-08-21T08:48:14;7.00;;;2.25;;
12328;SDS011;6230;52.390;10.256;2022-08-21T08:50:58;6.20;;;2.25;;
12328;SDS011;6230;52.390;10.256;2022-08-21T08:53:30;7.60;;;2.45;;
12328;SDS011;6230;52.390;10.256;2022-08-21T08:56:09;3.38;;;1.80;;
12328;SDS011;6230;52.390;10.256;2022-08-21T08:58:39;3.38;;;1.95;;
12328;SDS011;6230;52.390;10.256;2022-08-21T09:01:14;6.07;;;2.05;;
12328;SDS011;6230;52.390;10.256;2022-08-21T09:03:42;5.82;;;2.40;;
12328;SDS011;6230;52.390;10.256;2022-08-21T09:06:16;9.80;;;2.33;;
12328;SDS011;6230;52.390;10.256;2022-08-21T09:08:54;3.92;;;1.95;;
12328;SDS011;6230;52.390;10.256;2022-08-21T09:11:39;5.82;;;2.28;;
12328;SDS011;6230;52.390;10.256;2022-08-21T09:14:18;6.03;;;2.00;;
12328;SDS011;6230;52.390;10.256;2022-08-21T09:16:53;5.30;;;1.98;;
12328;SDS011;6230;52.390;10.256;2022-08-21T09:27:42;11.30;;;5.68;;
12328;SDS011;6230;52.390;10.256;2022-08-21T09:30:08;5.07;;;2.45;;
12328;SDS011;6230;52.390;10.256;2022-08-21T09:32:35;5.80;;;2.90;;
12328;SDS011;6230;52.390;10.256;2022-08-21T09:40:18;5.45;;;2.67;;
12328;SDS011;6230;52.390;10.256;2022-08-21T09:42:53;7.35;;;4.28;;
12328;SDS011;6230;52.390;10.256;2022-08-21T09:45:20;9.52;;;2.90;;
12328;SDS011;6230;52.390;10.256;2022-08-21T09:47:46;9.55;;;2.97;;
12328;SDS011;6230;52.390;10.256;2022-08-21T09:50:14;6.15;;;2.50;;
12328;SDS011;6230;52.390;10.256;2022-08-21T09:52:46;6.22;;;2.50;;
12328;SDS011;6230;52.390;10.256;2022-08-21T09:55:20;7.28;;;3.13;;
12328;SDS011;6230;52.390;10.256;2022-08-21T09:58:16;5.88;;;2.30;;
12328;SDS011;6230;52.390;10.256;2022-08-21T10:00:44;6.97;;;3.67;;
12328;SDS011;6230;52.390;10.256;2022-08-21T10:05:38;6.07;;;2.53;;
12328;SDS011;6230;52.390;10.256;2022-08-21T10:08:04;8.32;;;3.03;;
12328;SDS011;6230;52.390;10.256;2022-08-21T10:10:40;5.85;;;2.50;;
12328;SDS011;6230;52.390;10.256;2022-08-21T10:16:09;6.45;;;2.40;;
12328;SDS011;6230;52.390;10.256;2022-08-21T10:18:41;5.35;;;2.40;;
12328;SDS011;6230;52.390;10.256;2022-08-21T10:32:37;5.38;;;2.40;;
12328;SDS011;6230;52.390;10.256;2022-08-21T10:40:42;7.53;;;2.47;;
12328;SDS011;6230;52.390;10.256;2022-08-21T10:48:36;4.80;;;2.15;;
12328;SDS011;6230;52.390;10.256;2022-08-21T10:54:05;5.97;;;1.98;;
12328;SDS011;6230;52.390;10.256;2022-08-21T10:56:41;5.18;;;2.63;;
12328;SDS011;6230;52.390;10.256;2022-08-21T11:04:56;5.95;;;2.15;;
12328;SDS011;6230;52.390;10.256;2022-08-21T11:07:35;5.18;;;2.20;;
12328;SDS011;6230;52.390;10.256;2022-08-21T11:10:21;6.05;;;2.55;;
12328;SDS011;6230;52.390;10.256;2022-08-21T11:12:52;5.80;;;1.98;;
12328;SDS011;6230;52.390;10.256;2022-08-21T11:15:30;7.30;;;2.05;;
12328;SDS011;6230;52.390;10.256;2022-08-21T11:18:00;4.80;;;2.20;;
12328;SDS011;6230;52.390;10.256;2022-08-21T11:20:36;6.13;;;1.83;;
12328;SDS011;6230;52.390;10.256;2022-08-21T11:23:19;5.22;;;2.35;;
12328;SDS011;6230;52.390;10.256;2022-08-21T11:25:53;5.00;;;2.00;;
12328;SDS011;6230;52.390;10.256;2022-08-21T11:28:35;5.47;;;1.92;;
12328;SDS011;6230;52.390;10.256;2022-08-21T11:34:25;3.75;;;2.08;;
12328;SDS011;6230;52.390;10.256;2022-08-21T11:37:11;6.18;;;2.35;;
12328;SDS011;6230;52.390;10.256;2022-08-21T11:39:53;5.80;;;1.80;;
12328;SDS011;6230;52.390;10.256;2022-08-21T11:43:00;7.07;;;1.75;;
12328;SDS011;6230;52.390;10.256;2022-08-21T11:51:07;6.00;;;1.98;;
12328;SDS011;6230;52.390;10.256;2022-08-21T11:53:48;4.45;;;1.67;;
12328;SDS011;6230;52.390;10.256;2022-08-21T11:56:31;4.78;;;1.75;;
12328;SDS011;6230;52.390;10.256;2022-08-21T11:59:11;5.35;;;1.88;;
12328;SDS011;6230;52.390;10.256;2022-08-21T12:01:45;4.18;;;1.60;;
12328;SDS011;6230;52.390;10.256;2022-08-21T12:04:27;5.55;;;1.95;;
12328;SDS011;6230;52.390;10.256;2022-08-21T12:06:54;4.40;;;1.70;;
12328;SDS011;6230;52.390;10.256;2022-08-21T12:17:04;3.90;;;1.95;;
12328;SDS011;6230;52.390;10.256;2022-08-21T12:19:32;3.65;;;1.90;;
12328;SDS011;6230;52.390;10.256;2022-08-21T12:22:07;7.40;;;2.50;;
12328;SDS011;6230;52.390;10.256;2022-08-21T12:27:14;4.53;;;2.00;;
12328;SDS011;6230;52.390;10.256;2022-08-21T12:29:51;8.25;;;2.20;;
12328;SDS011;6230;52.390;10.256;2022-08-21T12:32:25;5.00;;;1.90;;
12328;SDS011;6230;52.390;10.256;2022-08-21T12:35:13;3.00;;;1.63;;
12328;SDS011;6230;52.390;10.256;2022-08-21T12:37:46;5.03;;;1.40;;
12328;SDS011;6230;52.390;10.256;2022-08-21T12:42:48;2.38;;;1.52;;
12328;SDS011;6230;52.390;10.256;2022-08-21T12:48:18;3.95;;;1.83;;
12328;SDS011;6230;52.390;10.256;2022-08-21T12:56:21;3.83;;;1.60;;
12328;SDS011;6230;52.390;10.256;2022-08-21T12:58:50;2.67;;;1.80;;
12328;SDS011;6230;52.390;10.256;2022-08-21T13:01:24;5.90;;;2.50;;
12328;SDS011;6230;52.390;10.256;2022-08-21T13:03:54;3.00;;;1.40;;
12328;SDS011;6230;52.390;10.256;2022-08-21T13:06:23;3.05;;;1.58;;
12328;SDS011;6230;52.390;10.256;2022-08-21T13:08:52;1.80;;;1.10;;
12328;SDS011;6230;52.390;10.256;2022-08-21T13:11:24;1.77;;;1.33;;
12328;SDS011;6230;52.390;10.256;2022-08-21T13:13:50;3.88;;;1.42;;
12328;SDS011;6230;52.390;10.256;2022-08-21T13:16:20;4.63;;;1.50;;
12328;SDS011;6230;52.390;10.256;2022-08-21T13:18:57;2.00;;;1.30;;
12328;SDS011;6230;52.390;10.256;2022-08-21T13:21:27;3.85;;;1.40;;
12328;SDS011;6230;52.390;10.256;2022-08-21T13:24:06;7.13;;;1.60;;
12328;SDS011;6230;52.390;10.256;2022-08-21T13:26:39;3.00;;;1.40;;
12328;SDS011;6230;52.390;10.256;2022-08-21T13:29:06;4.75;;;1.50;;
12328;SDS011;6230;52.390;10.256;2022-08-21T13:31:36;3.75;;;1.48;;
12328;SDS011;6230;52.390;10.256;2022-08-21T13:34:05;2.97;;;1.50;;
12328;SDS011;6230;52.390;10.256;2022-08-21T13:36:34;4.38;;;1.48;;
12328;SDS011;6230;52.390;10.256;2022-08-21T13:39:04;4.13;;;1.40;;
12328;SDS011;6230;52.390;10.256;2022-08-21T13:41:36;3.78;;;1.17;;
12328;SDS011;6230;52.390;10.256;2022-08-21T13:44:50;4.30;;;1.45;;
12328;SDS011;6230;52.390;10.256;2022-08-21T13:47:20;2.88;;;1.48;;
12328;SDS011;6230;52.390;10.256;2022-08-21T13:49:47;2.95;;;1.45;;
12328;SDS011;6230;52.390;10.256;2022-08-21T13:52:16;5.85;;;1.70;;
12328;SDS011;6230;52.390;10.256;2022-08-21T13:55:20;2.72;;;1.45;;
12328;SDS011;6230;52.390;10.256;2022-08-21T13:57:40;6.68;;;1.50;;
12328;SDS011;6230;52.390;10.256;2022-08-21T14:02:50;3.05;;;1.35;;
12328;SDS011;6230;52.390;10.256;2022-08-21T14:05:26;2.88;;;1.42;;
12328;SDS011;6230;52.390;10.256;2022-08-21T14:08:02;9.77;;;2.08;;
12328;SDS011;6230;52.390;10.256;2022-08-21T14:10:29;3.78;;;1.33;;
12328;SDS011;6230;52.390;10.256;2022-08-21T14:12:57;3.85;;;1.50;;
12328;SDS011;6230;52.390;10.256;2022-08-21T14:15:27;3.22;;;1.73;;
12328;SDS011;6230;52.390;10.256;2022-08-21T14:17:57;2.00;;;1.10;;
12328;SDS011;6230;52.390;10.256;2022-08-21T14:20:39;4.40;;;1.50;;
12328;SDS011;6230;52.390;10.256;2022-08-21T14:23:05;5.68;;;1.60;;
12328;SDS011;6230;52.390;10.256;2022-08-21T14:25:39;5.35;;;2.13;;
12328;SDS011;6230;52.390;10.256;2022-08-21T14:28:21;4.78;;;1.92;;
12328;SDS011;6230;52.390;10.256;2022-08-21T14:30:53;4.78;;;1.52;;
12328;SDS011;6230;52.390;10.256;2022-08-21T14:33:27;3.25;;;1.40;;
12328;SDS011;6230;52.390;10.256;2022-08-21T14:35:55;5.70;;;1.50;;
12328;SDS011;6230;52.390;10.256;2022-08-21T14:38:23;5.85;;;1.60;;
12328;SDS011;6230;52.390;10.256;2022-08-21T14:40:52;4.22;;;1.63;;
12328;SDS011;6230;52.390;10.256;2022-08-21T14:43:19;4.45;;;1.63;;
12328;SDS011;6230;52.390;10.256;2022-08-21T14:45:46;3.50;;;1.60;;
12328;SDS011;6230;52.390;10.256;2022-08-21T14:48:12;3.60;;;1.40;;
12328;SDS011;6230;52.390;10.256;2022-08-21T14:50:38;4.80;;;1.55;;
12328;SDS011;6230;52.390;10.256;2022-08-21T14:53:04;2.47;;;1.45;;
12328;SDS011;6230;52.390;10.256;2022-08-21T14:55:30;4.22;;;1.85;;
12328;SDS011;6230;52.390;10.256;2022-08-21T14:58:16;3.90;;;1.70;;
12328;SDS011;6230;52.390;10.256;2022-08-21T15:00:42;5.72;;;1.67;;
12328;SDS011;6230;52.390;10.256;2022-08-21T15:03:08;3.45;;;1.50;;
12328;SDS011;6230;52.390;10.256;2022-08-21T15:05:33;2.38;;;1.65;;
12328;SDS011;6230;52.390;10.256;2022-08-21T15:07:59;3.38;;;1.67;;
12328;SDS011;6230;52.390;10.256;2022-08-21T15:10:24;3.10;;;1.40;;
12328;SDS011;6230;52.390;10.256;2022-08-21T15:12:50;3.05;;;1.45;;
12328;SDS011;6230;52.390;10.256;2022-08-21T15:15:15;4.63;;;1.55;;
12328;SDS011;6230;52.390;10.256;2022-08-21T15:17:41;3.30;;;1.52;;
12328;SDS011;6230;52.390;10.256;2022-08-21T15:20:07;4.05;;;1.52;;
12328;SDS011;6230;52.390;10.256;2022-08-21T15:22:34;3.92;;;1.40;;
12328;SDS011;6230;52.390;10.256;2022-08-21T15:24:59;6.80;;;2.00;;
12328;SDS011;6230;52.390;10.256;2022-08-21T15:27:26;6.22;;;2.20;;
12328;SDS011;6230;52.390;10.256;2022-08-21T15:29:53;3.75;;;2.45;;
12328;SDS011;6230;52.390;10.256;2022-08-21T15:34:47;4.95;;;2.33;;
12328;SDS011;6230;52.390;10.256;2022-08-21T15:37:14;5.50;;;1.90;;
12328;SDS011;6230;52.390;10.256;2022-08-21T15:39:39;4.72;;;1.83;;
12328;SDS011;6230;52.390;10.256;2022-08-21T15:42:05;3.42;;;1.60;;
12328;SDS011;6230;52.390;10.256;2022-08-21T15:44:31;4.93;;;3.08;;
12328;SDS011;6230;52.390;10.256;2022-08-21T15:46:57;4.28;;;1.83;;
12328;SDS011;6230;52.390;10.256;2022-08-21T15:49:24;4.70;;;2.65;;
12328;SDS011;6230;52.390;10.256;2022-08-21T15:51:49;5.22;;;2.88;;
12328;SDS011;6230;52.390;10.256;2022-08-21T15:54:15;4.88;;;3.83;;
12328;SDS011;6230;52.390;10.256;2022-08-21T15:56:42;3.38;;;1.73;;
12328;SDS011;6230;52.390;10.256;2022-08-21T15:59:12;4.07;;;2.63;;
12328;SDS011;6230;52.390;10.256;2022-08-21T16:01:40;4.55;;;1.60;;
12328;SDS011;6230;52.390;10.256;2022-08-21T16:04:06;6.78;;;2.35;;
12328;SDS011;6230;52.390;10.256;2022-08-21T16:06:32;3.78;;;1.73;;
12328;SDS011;6230;52.390;10.256;2022-08-21T16:08:58;4.07;;;2.00;;
12328;SDS011;6230;52.390;10.256;2022-08-21T16:11:24;5.07;;;2.03;;
12328;SDS011;6230;52.390;10.256;2022-08-21T16:13:50;3.45;;;1.90;;
12328;SDS011;6230;52.390;10.256;2022-08-21T16:16:16;3.50;;;1.63;;
12328;SDS011;6230;52.390;10.256;2022-08-21T16:18:45;4.55;;;2.33;;
12328;SDS011;6230;52.390;10.256;2022-08-21T16:21:11;3.92;;;1.90;;
12328;SDS011;6230;52.390;10.256;2022-08-21T16:23:37;3.70;;;1.48;;
12328;SDS011;6230;52.390;10.256;2022-08-21T16:26:05;5.35;;;2.00;;